Time;durP1;ratioP1;P1;durP2;ratioP2;P2;SDS_P1;SDS_P2;PMS_P1;PMS_P2;Temp;Humidity;BMP_temperature;BMP_pressure;BME280_temperature;BME280_humidity;BME280_pressure;Samples;Min_cycle;Max_cycle;Signal;HPM_P1;HPM_P2
2022/08/26 00:02:12;;;;;;;1.65;1.55;;;23.70;99.90;;;;;;4967301;28;20197;-76
2022/08/26 00:04:40;;;;;;;1.35;1.30;;;23.60;99.90;;;;;;4967872;28;20277;-75
2022/08/26 00:07:07;;;;;;;1.48;1.38;;;23.60;99.90;;;;;;4970654;28;20221;-75
2022/08/26 00:09:34;;;;;;;1.60;1.50;;;23.60;99.90;;;;;;4968025;28;20224;-76
2022/08/26 00:12:01;;;;;;;1.35;1.30;;;23.60;99.90;;;;;;4969992;28;20201;-76
2022/08/26 00:14:28;;;;;;;1.35;1.25;;;23.60;99.90;;;;;;4969011;28;20245;-75
2022/08/26 00:16:57;;;;;;;1.50;1.40;;;23.60;99.90;;;;;;4970842;28;20213;-75
2022/08/26 00:19:24;;;;;;;1.42;1.33;;;23.50;99.90;;;;;;4970583;28;20205;-75
2022/08/26 00:21:52;;;;;;;1.20;1.20;;;23.50;99.90;;;;;;4969880;28;20210;-75
2022/08/26 00:24:20;;;;;;;1.48;1.35;;;23.50;99.90;;;;;;4969842;28;20194;-75
2022/08/26 00:26:47;;;;;;;1.40;1.30;;;23.50;99.90;;;;;;4969065;28;20710;-74
2022/08/26 00:29:15;;;;;;;1.50;1.40;;;23.40;99.90;;;;;;4969572;28;20202;-76
2022/08/26 00:31:43;;;;;;;2.38;1.50;;;23.50;99.90;;;;;;4968000;28;20255;-75
2022/08/26 00:34:12;;;;;;;1.60;1.50;;;23.40;99.90;;;;;;4969955;28;20730;-75
2022/08/26 00:36:39;;;;;;;1.60;1.50;;;23.40;99.90;;;;;;4966369;28;20198;-75
2022/08/26 00:39:07;;;;;;;1.38;1.27;;;23.40;99.90;;;;;;4969937;28;20297;-75
2022/08/26 00:41:34;;;;;;;1.67;1.58;;;23.30;99.90;;;;;;4970208;28;20284;-75
2022/08/26 00:44:01;;;;;;;1.40;1.30;;;23.30;99.90;;;;;;4971525;28;20197;-75
2022/08/26 00:46:32;;;;;;;1.83;1.50;;;23.30;99.90;;;;;;4966428;28;20222;-75
2022/08/26 00:49:04;;;;;;;1.08;1.08;;;23.30;99.90;;;;;;4970899;28;20201;-75
2022/08/26 00:51:39;;;;;;;1.55;1.45;;;23.30;99.90;;;;;;4952652;29;20599;-75
2022/08/26 00:54:09;;;;;;;1.60;1.50;;;23.30;99.90;;;;;;4946248;28;20221;-75
2022/08/26 00:56:41;;;;;;;1.55;1.45;;;23.30;99.90;;;;;;4951791;28;20218;-75
2022/08/26 00:59:11;;;;;;;1.40;1.30;;;23.30;99.90;;;;;;4951735;28;21166;-75
2022/08/26 01:01:42;;;;;;;1.48;1.20;;;23.30;99.90;;;;;;4950001;28;20199;-75
2022/08/26 01:04:09;;;;;;;1.20;1.15;;;23.30;99.90;;;;;;4949768;28;20199;-75
2022/08/26 01:06:38;;;;;;;1.50;1.40;;;23.30;99.90;;;;;;4950767;28;20256;-75
2022/08/26 01:09:05;;;;;;;1.55;1.45;;;23.30;99.90;;;;;;4949851;28;20249;-76
2022/08/26 01:11:33;;;;;;;1.45;1.35;;;23.30;99.90;;;;;;4951392;28;20226;-75
2022/08/26 01:14:02;;;;;;;1.45;1.35;;;23.30;99.90;;;;;;4948979;29;20862;-76
2022/08/26 01:16:32;;;;;;;1.45;1.30;;;23.30;99.90;;;;;;4943954;29;20218;-75
2022/08/26 01:19:07;;;;;;;1.58;1.48;;;23.30;99.90;;;;;;4946637;29;20198;-75
2022/08/26 01:21:41;;;;;;;1.10;1.10;;;23.30;99.90;;;;;;4951220;29;20217;-75
2022/08/26 01:24:11;;;;;;;1.45;1.38;;;23.30;99.90;;;;;;4949933;29;20194;-76
2022/08/26 01:26:41;;;;;;;1.50;1.40;;;23.20;99.90;;;;;;4945999;28;20669;-75
2022/08/26 01:29:12;;;;;;;1.45;1.35;;;23.30;99.90;;;;;;4949250;28;20194;-75
2022/08/26 01:31:44;;;;;;;1.52;1.42;;;23.30;99.90;;;;;;4953671;29;20210;-75
2022/08/26 01:34:17;;;;;;;1.33;1.23;;;23.30;99.90;;;;;;4942063;29;20215;-76
2022/08/26 01:36:45;;;;;;;1.02;1.02;;;23.30;99.90;;;;;;4952867;28;20210;-75
2022/08/26 01:39:13;;;;;;;1.30;1.20;;;23.30;99.90;;;;;;4946888;29;20199;-75
2022/08/26 01:41:41;;;;;;;1.40;1.30;;;23.20;99.90;;;;;;4947284;28;20205;-75
2022/08/26 01:44:17;;;;;;;1.30;1.20;;;23.20;99.90;;;;;;4956087;28;20205;-73
2022/08/26 01:46:46;;;;;;;1.40;1.30;;;23.20;99.90;;;;;;4949466;28;20225;-75
2022/08/26 01:49:15;;;;;;;1.58;1.48;;;23.20;99.90;;;;;;4943529;28;20202;-76
2022/08/26 01:51:43;;;;;;;1.20;1.20;;;23.10;99.90;;;;;;4968585;28;20204;-75
2022/08/26 01:54:12;;;;;;;1.20;1.10;;;23.10;99.90;;;;;;4967083;28;20260;-75
2022/08/26 01:56:40;;;;;;;1.30;1.20;;;23.10;99.90;;;;;;4968131;28;20619;-76
2022/08/26 01:59:11;;;;;;;1.42;1.33;;;23.10;99.90;;;;;;4971972;28;20213;-75
2022/08/26 02:01:38;;;;;;;1.45;1.35;;;23.00;99.90;;;;;;4976003;28;20268;-76
2022/08/26 02:04:13;;;;;;;1.52;1.35;;;23.00;99.90;;;;;;4977481;28;20272;-75
2022/08/26 02:06:40;;;;;;;1.35;1.30;;;22.90;99.90;;;;;;4968819;28;20228;-75
2022/08/26 02:09:08;;;;;;;1.30;1.20;;;22.80;99.90;;;;;;4974815;28;20213;-73
2022/08/26 02:11:37;;;;;;;1.52;1.42;;;22.80;99.90;;;;;;4968100;28;20225;-75
2022/08/26 02:14:11;;;;;;;1.30;1.20;;;22.70;99.90;;;;;;4974451;28;20233;-75
2022/08/26 02:16:42;;;;;;;1.95;1.25;;;22.70;99.90;;;;;;4968034;28;20216;-75
2022/08/26 02:19:14;;;;;;;1.05;1.05;;;22.70;99.90;;;;;;4974029;28;20660;-76
2022/08/26 02:21:42;;;;;;;1.40;1.30;;;22.70;99.90;;;;;;4974817;28;20232;-75
2022/08/26 02:24:11;;;;;;;1.73;1.58;;;22.60;99.90;;;;;;4973881;28;20194;-75
2022/08/26 02:26:40;;;;;;;1.70;1.60;;;22.50;99.90;;;;;;4970032;28;20202;-75
2022/08/26 02:29:12;;;;;;;1.70;1.60;;;22.40;99.90;;;;;;4974616;28;20205;-73
2022/08/26 02:31:39;;;;;;;1.98;1.80;;;22.40;99.90;;;;;;4959545;28;20222;-75
2022/08/26 02:34:11;;;;;;;1.80;1.70;;;22.40;99.90;;;;;;4969286;28;20228;-76
2022/08/26 02:36:38;;;;;;;1.60;1.50;;;22.30;99.90;;;;;;4972104;28;20225;-74
2022/08/26 02:39:06;;;;;;;1.55;1.45;;;22.20;99.90;;;;;;4975160;28;20202;-75
2022/08/26 02:41:33;;;;;;;1.77;1.67;;;22.10;99.90;;;;;;4974393;28;20229;-75
2022/08/26 02:44:02;;;;;;;1.83;1.70;;;22.10;99.90;;;;;;4973200;28;20217;-75
2022/08/26 02:46:30;;;;;;;1.58;1.48;;;22.10;99.90;;;;;;4963540;28;20664;-75
2022/08/26 02:48:57;;;;;;;1.83;1.70;;;22.00;99.90;;;;;;4967069;28;20201;-75
2022/08/26 02:51:25;;;;;;;1.70;1.60;;;22.10;99.90;;;;;;4970434;28;20603;-76
2022/08/26 02:53:52;;;;;;;1.98;1.77;;;22.10;99.90;;;;;;4974971;28;20229;-75
2022/08/26 02:56:19;;;;;;;1.85;1.75;;;22.10;99.90;;;;;;4972707;28;20276;-75
2022/08/26 02:58:46;;;;;;;1.77;1.67;;;22.10;99.90;;;;;;4971612;28;20217;-75
2022/08/26 03:01:22;;;;;;;1.77;1.67;;;22.10;99.90;;;;;;4972669;28;20225;-75
2022/08/26 03:03:49;;;;;;;2.17;1.98;;;22.10;99.90;;;;;;4972108;28;20189;-75
2022/08/26 03:06:16;;;;;;;1.73;1.63;;;22.00;99.90;;;;;;4969037;28;20217;-75
2022/08/26 03:08:44;;;;;;;1.63;1.45;;;22.00;99.90;;;;;;4974894;28;20221;-76
2022/08/26 03:11:11;;;;;;;1.70;1.60;;;22.00;99.90;;;;;;4973712;28;20256;-75
2022/08/26 03:13:39;;;;;;;1.60;1.50;;;22.00;99.90;;;;;;4962236;28;20202;-76
2022/08/26 03:16:07;;;;;;;1.52;1.42;;;22.00;99.90;;;;;;4969793;28;20225;-74
2022/08/26 03:18:35;;;;;;;1.55;1.45;;;22.00;99.90;;;;;;4972740;28;20217;-76
2022/08/26 03:21:06;;;;;;;1.90;1.80;;;21.90;99.90;;;;;;4966635;28;20245;-76
2022/08/26 03:23:33;;;;;;;1.63;1.52;;;21.90;99.90;;;;;;4972733;28;20284;-76
2022/08/26 03:26:01;;;;;;;1.58;1.48;;;21.90;99.90;;;;;;4968985;28;20217;-77
2022/08/26 03:28:28;;;;;;;1.92;1.70;;;22.00;99.90;;;;;;4971642;28;20321;-74
2022/08/26 03:30:54;;;;;;;1.48;1.38;;;22.00;99.90;;;;;;4968279;28;20219;-75
2022/08/26 03:33:21;;;;;;;1.42;1.33;;;22.00;99.90;;;;;;4971246;28;20225;-76
2022/08/26 03:35:51;;;;;;;1.50;1.40;;;21.90;99.90;;;;;;4973170;28;20244;-77
2022/08/26 03:38:18;;;;;;;1.48;1.38;;;21.90;99.90;;;;;;4973906;28;20229;-76
2022/08/26 03:40:45;;;;;;;1.50;1.40;;;21.90;99.90;;;;;;4973473;28;20711;-75
2022/08/26 03:43:14;;;;;;;1.55;1.45;;;21.90;99.90;;;;;;4967904;28;20224;-75
2022/08/26 03:45:42;;;;;;;1.60;1.50;;;21.80;99.90;;;;;;4973289;28;20213;-76
2022/08/26 03:48:10;;;;;;;1.70;1.60;;;21.80;99.90;;;;;;4969034;28;20222;-74
2022/08/26 03:50:37;;;;;;;1.50;1.40;;;21.80;99.90;;;;;;4973607;28;20862;-76
2022/08/26 03:53:06;;;;;;;1.70;1.60;;;21.80;99.90;;;;;;4966560;28;20220;-76
2022/08/26 03:55:33;;;;;;;1.50;1.40;;;21.80;99.90;;;;;;4972967;28;20245;-76
2022/08/26 03:58:01;;;;;;;1.95;1.85;;;21.80;99.90;;;;;;4965330;28;20221;-75
2022/08/26 04:00:28;;;;;;;1.42;1.33;;;21.80;99.90;;;;;;4969687;28;20221;-76
2022/08/26 04:02:56;;;;;;;1.70;1.60;;;21.70;99.90;;;;;;4971840;28;20949;-75
2022/08/26 04:05:23;;;;;;;2.10;1.90;;;21.70;99.90;;;;;;4964681;28;20574;-75
2022/08/26 04:07:51;;;;;;;2.08;1.98;;;21.80;99.90;;;;;;4973158;28;20268;-75
2022/08/26 04:10:23;;;;;;;2.28;2.10;;;21.90;99.90;;;;;;4971624;28;20225;-75
2022/08/26 04:12:50;;;;;;;2.63;1.70;;;22.00;99.90;;;;;;4973085;28;20193;-75
2022/08/26 04:15:18;;;;;;;1.73;1.63;;;22.00;99.90;;;;;;4970852;28;20225;-76
2022/08/26 04:17:45;;;;;;;1.58;1.48;;;22.00;99.90;;;;;;4979927;28;20710;-76
2022/08/26 04:20:13;;;;;;;2.75;1.70;;;22.10;99.90;;;;;;4971405;28;20300;-76
2022/08/26 04:22:41;;;;;;;1.60;1.50;;;22.10;99.90;;;;;;4967501;28;20240;-76
2022/08/26 04:25:09;;;;;;;1.70;1.60;;;22.10;99.90;;;;;;4971356;28;20774;-75
2022/08/26 04:27:37;;;;;;;1.52;1.42;;;22.10;99.90;;;;;;4971174;28;20233;-75
2022/08/26 04:30:05;;;;;;;2.00;1.90;;;22.00;99.90;;;;;;4970629;28;20240;-76
2022/08/26 04:32:32;;;;;;;1.92;1.83;;;22.00;99.90;;;;;;4965564;28;20219;-76
2022/08/26 04:35:00;;;;;;;1.88;1.77;;;22.00;99.90;;;;;;4969823;28;20225;-76
2022/08/26 04:37:27;;;;;;;2.20;2.00;;;22.10;99.90;;;;;;4971363;28;20221;-75
2022/08/26 04:39:54;;;;;;;1.88;1.77;;;22.00;99.90;;;;;;4968170;28;20217;-75
2022/08/26 04:42:21;;;;;;;2.33;1.77;;;22.00;99.90;;;;;;4971475;28;20206;-74
2022/08/26 04:44:49;;;;;;;2.35;1.98;;;22.00;99.90;;;;;;4967319;28;20229;-74
2022/08/26 04:47:16;;;;;;;1.65;1.55;;;22.00;99.90;;;;;;4971218;28;20314;-74
2022/08/26 04:49:43;;;;;;;1.88;1.77;;;21.90;99.90;;;;;;4969559;28;20884;-75
2022/08/26 04:52:10;;;;;;;2.00;1.65;;;21.90;99.90;;;;;;4968490;28;20202;-74
2022/08/26 04:54:38;;;;;;;2.30;1.88;;;21.80;99.90;;;;;;4971655;28;20244;-75
2022/08/26 04:57:05;;;;;;;1.80;1.70;;;21.80;99.90;;;;;;4973884;28;20220;-75
2022/08/26 04:59:32;;;;;;;1.70;1.60;;;21.90;99.90;;;;;;4981913;28;20235;-73
2022/08/26 05:02:02;;;;;;;1.98;1.88;;;21.90;99.90;;;;;;4971190;28;20256;-75
2022/08/26 05:04:30;;;;;;;2.00;1.90;;;21.90;99.90;;;;;;4969286;28;20231;-75
2022/08/26 05:06:57;;;;;;;1.80;1.70;;;22.00;99.90;;;;;;4964767;28;20316;-75
2022/08/26 05:09:24;;;;;;;1.63;1.52;;;22.00;99.90;;;;;;4967891;28;20205;-73
2022/08/26 05:11:51;;;;;;;1.70;1.60;;;22.10;99.90;;;;;;4967973;28;20205;-76
2022/08/26 05:14:19;;;;;;;2.08;1.88;;;22.30;99.90;;;;;;4963019;28;20611;-76
2022/08/26 05:16:46;;;;;;;1.80;1.67;;;22.50;99.90;;;;;;4968977;28;20205;-76
2022/08/26 05:19:15;;;;;;;1.63;1.52;;;22.80;99.90;;;;;;4966067;28;20209;-76
2022/08/26 05:21:43;;;;;;;1.70;1.60;;;23.00;99.90;;;;;;4964562;28;20205;-75
2022/08/26 05:24:11;;;;;;;2.00;1.80;;;23.20;99.90;;;;;;4968397;28;20204;-74
2022/08/26 05:26:39;;;;;;;2.58;1.77;;;23.40;99.90;;;;;;4968672;28;20201;-76
2022/08/26 05:29:08;;;;;;;1.90;1.75;;;23.40;99.90;;;;;;5002473;23;20221;-74
2022/08/26 05:31:35;;;;;;;1.60;1.50;;;23.50;99.90;;;;;;5008484;28;20220;-75
2022/08/26 05:34:04;;;;;;;2.67;1.95;;;23.60;99.90;;;;;;5017144;28;20208;-76
2022/08/26 05:36:35;;;;;;;3.30;1.80;;;23.80;99.90;;;;;;5022222;28;20296;-75
2022/08/26 05:39:04;;;;;;;2.45;1.98;;;24.00;99.90;;;;;;5033525;28;20223;-78
2022/08/26 05:41:33;;;;;;;3.83;2.20;;;24.20;99.90;;;;;;5034832;28;20228;-77
2022/08/26 05:44:02;;;;;;;1.70;1.60;;;24.30;99.90;;;;;;5032220;28;20207;-75
2022/08/26 05:46:29;;;;;;;1.67;1.58;;;24.20;99.90;;;;;;5026498;28;20637;-76
2022/08/26 05:48:57;;;;;;;1.88;1.55;;;24.10;99.90;;;;;;5030688;28;21208;-73
2022/08/26 05:51:25;;;;;;;2.08;1.98;;;23.90;99.90;;;;;;5027449;28;20505;-73
2022/08/26 05:53:54;;;;;;;2.10;1.90;;;23.80;99.90;;;;;;5030919;28;20204;-74
2022/08/26 05:56:23;;;;;;;1.92;1.80;;;23.70;99.90;;;;;;5027400;28;20224;-73
2022/08/26 05:58:50;;;;;;;2.58;2.00;;;23.70;99.90;;;;;;5029601;28;20564;-74
2022/08/26 06:01:19;;;;;;;2.13;1.92;;;23.70;99.90;;;;;;5033035;28;20216;-75
2022/08/26 06:03:50;;;;;;;3.05;2.35;;;23.80;99.90;;;;;;5031149;28;20199;-75
2022/08/26 06:06:20;;;;;;;1.90;1.80;;;23.90;99.90;;;;;;5029816;28;20219;-74
2022/08/26 06:08:48;;;;;;;3.05;1.85;;;24.10;99.90;;;;;;5032596;28;20753;-73
2022/08/26 06:11:19;;;;;;;2.00;1.90;;;24.20;99.90;;;;;;5033701;28;20315;-74
2022/08/26 06:13:46;;;;;;;1.80;1.70;;;24.40;99.90;;;;;;5030312;28;20196;-74
2022/08/26 06:16:16;;;;;;;2.05;1.80;;;24.50;99.90;;;;;;5030120;28;20230;-74
2022/08/26 06:18:44;;;;;;;2.97;2.00;;;24.70;99.90;;;;;;5032198;28;20310;-74
2022/08/26 06:21:14;;;;;;;1.85;1.75;;;24.70;99.90;;;;;;5030478;28;20223;-74
2022/08/26 06:26:29;;;;;;;3.05;2.30;;;24.60;99.90;;;;;;5029853;28;20223;-74
2022/08/26 06:28:57;;;;;;;2.42;2.22;;;24.50;99.90;;;;;;5032969;28;20242;-74
2022/08/26 06:31:25;;;;;;;2.75;2.15;;;24.40;99.90;;;;;;5031942;28;20632;-73
2022/08/26 06:33:53;;;;;;;2.10;1.92;;;24.40;99.90;;;;;;5033903;28;20207;-74
2022/08/26 06:36:22;;;;;;;2.20;2.10;;;24.60;99.90;;;;;;5030917;28;20299;-74
2022/08/26 06:38:50;;;;;;;2.30;2.10;;;24.70;99.90;;;;;;5032045;28;20226;-74
2022/08/26 06:41:19;;;;;;;3.40;2.53;;;24.70;99.90;;;;;;5033438;28;20216;-74
2022/08/26 06:43:48;;;;;;;4.03;2.28;;;24.70;99.90;;;;;;5031419;28;20220;-74
2022/08/26 06:46:17;;;;;;;2.80;2.15;;;24.70;99.90;;;;;;5029898;28;20752;-75
2022/08/26 06:48:45;;;;;;;2.97;2.40;;;24.50;99.90;;;;;;5034134;28;20216;-75
2022/08/26 06:51:14;;;;;;;2.30;2.10;;;24.50;99.90;;;;;;5029118;28;20224;-76
2022/08/26 06:53:44;;;;;;;3.00;2.33;;;24.50;99.90;;;;;;5029413;28;20204;-74
2022/08/26 06:56:11;;;;;;;3.55;2.35;;;24.80;99.90;;;;;;5033387;28;20215;-75
2022/08/26 06:58:40;;;;;;;2.33;2.13;;;24.90;99.90;;;;;;5032119;28;20278;-75
2022/08/26 07:01:17;;;;;;;3.25;2.70;;;24.90;99.90;;;;;;5031485;28;20235;-74
2022/08/26 07:03:44;;;;;;;2.22;2.10;;;25.00;99.90;;;;;;5032770;28;20198;-74
2022/08/26 07:06:11;;;;;;;2.53;2.33;;;25.10;99.90;;;;;;5030966;28;20262;-74
2022/08/26 07:08:38;;;;;;;2.58;2.38;;;25.30;99.90;;;;;;5028335;28;20223;-74
2022/08/26 07:11:07;;;;;;;3.03;2.30;;;25.50;99.90;;;;;;5029639;28;20227;-75
2022/08/26 07:13:35;;;;;;;2.25;2.05;;;25.50;99.90;;;;;;5032091;28;20649;-74
2022/08/26 07:16:04;;;;;;;4.40;2.40;;;25.40;99.90;;;;;;5032114;28;20227;-75
2022/08/26 07:18:33;;;;;;;3.40;2.28;;;25.30;99.90;;;;;;5031652;28;20203;-74
2022/08/26 07:21:01;;;;;;;2.50;2.30;;;25.20;99.90;;;;;;5031176;28;20717;-74
2022/08/26 07:23:28;;;;;;;2.60;2.40;;;25.30;99.90;;;;;;5029794;28;20200;-74
2022/08/26 07:25:55;;;;;;;2.38;2.08;;;25.40;99.90;;;;;;5030165;28;20212;-74
2022/08/26 07:28:23;;;;;;;3.42;2.25;;;25.50;99.90;;;;;;5029068;28;20666;-74
2022/08/26 07:30:50;;;;;;;2.42;2.22;;;25.70;99.90;;;;;;5029843;28;20215;-74
2022/08/26 07:33:17;;;;;;;2.22;2.08;;;25.90;99.90;;;;;;5033399;28;20210;-73
2022/08/26 07:35:46;;;;;;;2.90;2.25;;;26.10;99.90;;;;;;5029031;28;20215;-73
2022/08/26 07:38:13;;;;;;;2.45;2.25;;;26.10;99.90;;;;;;5030652;28;20200;-74
2022/08/26 07:40:41;;;;;;;2.63;2.42;;;26.10;99.90;;;;;;5030670;28;20228;-74
2022/08/26 07:43:08;;;;;;;3.03;2.30;;;26.10;99.90;;;;;;5027534;28;20298;-73
2022/08/26 07:45:37;;;;;;;2.50;2.30;;;26.10;99.90;;;;;;5030874;28;20231;-74
2022/08/26 07:48:04;;;;;;;2.65;2.45;;;26.30;99.90;;;;;;5031070;28;20196;-74
2022/08/26 07:50:32;;;;;;;2.63;2.30;;;26.30;99.90;;;;;;5033338;28;20757;-74
2022/08/26 07:53:01;;;;;;;2.80;2.60;;;26.30;99.90;;;;;;5033374;28;20694;-74
2022/08/26 07:55:28;;;;;;;3.20;2.58;;;26.40;99.90;;;;;;5030516;28;20250;-75
2022/08/26 07:57:55;;;;;;;2.35;2.25;;;26.50;99.90;;;;;;5031880;28;20199;-73
2022/08/26 08:00:23;;;;;;;2.85;2.20;;;26.60;99.90;;;;;;5031964;28;20235;-74
2022/08/26 08:02:51;;;;;;;2.55;2.35;;;26.70;99.90;;;;;;5033862;28;20429;-76
2022/08/26 08:05:20;;;;;;;2.85;2.55;;;26.70;99.90;;;;;;5032110;28;20219;-75
2022/08/26 08:07:48;;;;;;;2.67;2.47;;;26.80;99.90;;;;;;5033147;28;20196;-74
2022/08/26 08:10:19;;;;;;;2.50;2.30;;;27.10;99.90;;;;;;5031647;28;20232;-76
2022/08/26 08:12:48;;;;;;;2.83;2.47;;;27.30;99.90;;;;;;5032542;28;20223;-74
2022/08/26 08:15:16;;;;;;;2.30;2.20;;;27.30;99.90;;;;;;5030947;28;20323;-74
2022/08/26 08:17:44;;;;;;;2.50;2.28;;;27.20;99.90;;;;;;5028722;28;20458;-73
2022/08/26 08:20:12;;;;;;;2.38;2.20;;;27.40;99.90;;;;;;5032973;28;20230;-74
2022/08/26 08:22:39;;;;;;;3.47;2.20;;;27.60;99.90;;;;;;5027766;28;20199;-75
2022/08/26 08:25:07;;;;;;;2.63;2.38;;;27.70;99.90;;;;;;5024362;28;20223;-75
2022/08/26 08:27:37;;;;;;;6.35;2.40;;;27.70;99.90;;;;;;5031905;28;20195;-74
2022/08/26 08:30:05;;;;;;;3.17;2.40;;;27.70;99.90;;;;;;5028597;28;20223;-76
2022/08/26 08:32:32;;;;;;;3.00;2.72;;;27.50;99.90;;;;;;5032156;28;20937;-73
2022/08/26 08:34:59;;;;;;;2.53;2.30;;;27.50;99.90;;;;;;5030539;28;20223;-74
2022/08/26 08:37:26;;;;;;;2.35;2.15;;;27.50;99.90;;;;;;5032645;28;20223;-74
2022/08/26 08:39:53;;;;;;;2.78;2.50;;;27.60;99.90;;;;;;5029308;28;20232;-75
2022/08/26 08:42:44;;;;;;;4.20;2.58;;;27.70;99.90;;;;;;5032832;28;20192;-74
2022/08/26 08:45:14;;;;;;;3.20;2.92;;;27.80;99.90;;;;;;5027369;28;20216;-76
2022/08/26 08:47:46;;;;;;;2.53;2.33;;;27.80;99.90;;;;;;5029343;28;20195;-77
2022/08/26 08:50:21;;;;;;;2.88;2.55;;;28.00;99.90;;;;;;5023337;28;20227;-75
2022/08/26 08:52:53;;;;;;;2.40;2.20;;;28.10;99.90;;;;;;5028766;28;20198;-75
2022/08/26 08:55:21;;;;;;;2.47;2.25;;;28.20;99.90;;;;;;5027366;28;20219;-75
2022/08/26 08:58:00;;;;;;;2.15;2.05;;;28.20;99.90;;;;;;5026962;28;20196;-76
2022/08/26 09:00:31;;;;;;;3.33;2.35;;;28.40;99.90;;;;;;5023986;28;20341;-75
2022/08/26 09:03:03;;;;;;;2.70;2.50;;;28.50;99.90;;;;;;5032055;28;20202;-76
2022/08/26 09:05:33;;;;;;;2.80;2.60;;;28.40;99.90;;;;;;5028032;28;20222;-76
2022/08/26 09:08:04;;;;;;;3.90;2.50;;;28.40;99.90;;;;;;5022906;28;20303;-76
2022/08/26 09:10:35;;;;;;;3.95;2.60;;;28.50;99.90;;;;;;5028359;28;20606;-75
2022/08/26 09:13:08;;;;;;;3.00;2.40;;;28.50;99.90;;;;;;5022708;28;20222;-75
2022/08/26 09:15:46;;;;;;;2.20;2.10;;;28.60;99.90;;;;;;5029593;28;20226;-75
2022/08/26 09:18:31;;;;;;;2.70;2.50;;;28.70;99.90;;;;;;5027049;28;20238;-77
2022/08/26 09:21:02;;;;;;;2.70;2.50;;;28.40;99.90;;;;;;5025325;28;20223;-76
2022/08/26 09:23:29;;;;;;;2.35;2.15;;;28.40;99.90;;;;;;5026453;28;20253;-77
2022/08/26 09:26:00;;;;;;;2.63;2.40;;;28.60;99.90;;;;;;5026669;28;20215;-76
2022/08/26 09:28:31;;;;;;;2.72;2.53;;;28.70;99.90;;;;;;5026190;28;20201;-74
2022/08/26 09:31:10;;;;;;;3.90;2.72;;;28.90;99.90;;;;;;5026823;28;20226;-75
2022/08/26 09:33:38;;;;;;;3.28;2.72;;;29.00;99.90;;;;;;5021892;28;20195;-74
2022/08/26 09:36:21;;;;;;;2.58;2.38;;;29.10;99.90;;;;;;5028596;28;20220;-76
2022/08/26 09:38:50;;;;;;;2.63;2.40;;;29.20;99.90;;;;;;5024049;28;20733;-75
2022/08/26 09:41:26;;;;;;;2.97;2.67;;;29.40;99.90;;;;;;5026720;28;20302;-76
2022/08/26 09:44:14;;;;;;;2.30;2.10;;;29.50;99.90;;;;;;5027121;28;20210;-75
2022/08/26 09:46:46;;;;;;;2.45;2.25;;;29.60;99.90;;;;;;5023632;28;20219;-77
2022/08/26 09:49:33;;;;;;;2.70;2.50;;;29.70;99.90;;;;;;5023935;28;20219;-77
2022/08/26 09:52:15;;;;;;;2.53;2.33;;;29.80;99.90;;;;;;5026149;28;20200;-75
2022/08/26 09:54:44;;;;;;;2.63;2.42;;;30.00;99.90;;;;;;5026941;28;20254;-76
2022/08/26 09:57:18;;;;;;;3.05;2.75;;;30.00;99.90;;;;;;5025521;28;20642;-75
2022/08/26 09:59:48;;;;;;;2.60;2.28;;;29.80;99.90;;;;;;5026871;28;20728;-74
2022/08/26 10:02:45;;;;;;;3.50;2.35;;;29.70;99.90;;;;;;5025090;28;20731;-75
2022/08/26 10:05:27;;;;;;;2.70;2.50;;;29.80;99.90;;;;;;5022176;28;20222;-75
2022/08/26 10:07:54;;;;;;;2.70;2.50;;;30.00;99.90;;;;;;5024578;28;20199;-75
2022/08/26 10:10:25;;;;;;;2.70;2.50;;;30.10;99.90;;;;;;5031220;28;20274;-75
2022/08/26 10:12:58;;;;;;;2.20;2.10;;;30.30;99.90;;;;;;5026730;28;20666;-77
2022/08/26 10:15:28;;;;;;;2.30;2.10;;;30.40;99.90;;;;;;5025634;28;20304;-77
2022/08/26 10:18:03;;;;;;;3.92;2.50;;;30.40;99.90;;;;;;5026329;28;20989;-77
2022/08/26 10:20:35;;;;;;;2.88;2.67;;;30.40;99.90;;;;;;5027346;28;20222;-76
2022/08/26 10:23:07;;;;;;;4.03;2.60;;;30.30;99.90;;;;;;5031132;28;20203;-76
2022/08/26 10:25:40;;;;;;;3.72;2.30;;;30.20;99.90;;;;;;5032235;28;20223;-75
2022/08/26 10:28:12;;;;;;;3.03;2.58;;;30.40;99.90;;;;;;5027332;28;20196;-72
2022/08/26 10:30:45;;;;;;;2.50;2.30;;;30.50;99.90;;;;;;5031865;28;20227;-75
2022/08/26 10:33:15;;;;;;;2.83;2.22;;;30.60;99.90;;;;;;5031067;28;20192;-76
2022/08/26 10:35:54;;;;;;;2.55;2.35;;;30.80;99.90;;;;;;5026475;28;20240;-76
2022/08/26 10:38:28;;;;;;;3.28;2.20;;;30.80;99.90;;;;;;5027730;28;20202;-72
2022/08/26 10:41:01;;;;;;;2.50;2.30;;;30.80;99.90;;;;;;5028524;28;20305;-75
2022/08/26 10:43:33;;;;;;;2.58;2.38;;;30.80;99.90;;;;;;5030765;28;20694;-74
2022/08/26 10:46:15;;;;;;;2.72;2.35;;;30.90;99.90;;;;;;5030166;28;20211;-76
2022/08/26 10:48:47;;;;;;;2.60;2.40;;;30.90;99.90;;;;;;5027250;28;20215;-75
2022/08/26 10:51:25;;;;;;;2.67;2.47;;;30.90;99.90;;;;;;5026834;28;20721;-75
2022/08/26 10:53:58;;;;;;;2.00;1.90;;;30.90;99.90;;;;;;5030336;28;20199;-75
2022/08/26 10:56:38;;;;;;;2.60;2.10;;;31.00;99.90;;;;;;5025096;28;20222;-74
2022/08/26 10:59:14;;;;;;;2.70;2.50;;;31.20;99.90;;;;;;5030382;28;20227;-75
2022/08/26 11:01:48;;;;;;;2.47;2.28;;;31.30;99.90;;;;;;5022477;28;20215;-75
2022/08/26 11:04:25;;;;;;;2.30;2.08;;;31.30;99.90;;;;;;5028397;28;20662;-74
2022/08/26 11:07:25;;;;;;;2.28;2.00;;;31.60;99.90;;;;;;5028732;28;20199;-75
2022/08/26 11:09:53;;;;;;;2.55;2.25;;;31.60;99.90;;;;;;5027441;28;20224;-74
2022/08/26 11:12:48;;;;;;;2.45;2.25;;;31.40;99.90;;;;;;5028372;28;20203;-71
2022/08/26 11:16:10;;;;;;;2.53;2.33;;;31.30;99.90;;;;;;5021268;28;20219;-75
2022/08/26 11:18:47;;;;;;;2.88;2.55;;;31.30;99.90;;;;;;5027164;28;20203;-74
2022/08/26 11:21:52;;;;;;;2.55;2.33;;;31.50;99.90;;;;;;5027529;28;20223;-75
2022/08/26 11:24:59;;;;;;;2.83;2.17;;;31.70;99.90;;;;;;5026192;28;20298;-72
2022/08/26 11:27:52;;;;;;;2.33;2.13;;;31.80;99.90;;;;;;5029709;28;20662;-75
2022/08/26 11:30:46;;;;;;;2.38;2.17;;;31.70;99.90;;;;;;5028336;28;20794;-75
2022/08/26 11:33:57;;;;;;;2.42;2.22;;;32.00;99.90;;;;;;5020371;22;20512;-76
2022/08/26 11:36:57;;;;;;;2.17;2.08;;;32.10;99.90;;;;;;5004128;28;20474;-76
2022/08/26 11:39:28;;;;;;;3.03;2.30;;;32.10;99.90;;;;;;5009604;28;20569;-77
2022/08/26 11:42:14;;;;;;;2.50;2.30;;;32.00;99.90;;;;;;5009471;28;20241;-76
2022/08/26 11:44:43;;;;;;;3.30;2.33;;;31.70;99.90;;;;;;5008729;28;20310;-76
2022/08/26 11:47:15;;;;;;;2.63;2.30;;;31.80;99.90;;;;;;5013135;28;20188;-77
2022/08/26 11:49:42;;;;;;;2.63;2.42;;;31.80;99.90;;;;;;5010122;28;20223;-77
2022/08/26 11:52:17;;;;;;;2.40;2.20;;;32.00;99.90;;;;;;5019273;28;20216;-76
2022/08/26 11:55:00;;;;;;;2.30;2.10;;;32.00;99.90;;;;;;5010877;28;20273;-76
2022/08/26 11:57:28;;;;;;;2.97;1.92;;;31.90;99.90;;;;;;5013065;28;20228;-75
2022/08/26 11:59:56;;;;;;;2.00;1.90;;;31.80;99.90;;;;;;5011316;28;20259;-76
2022/08/26 12:02:24;;;;;;;3.70;2.10;;;31.80;99.90;;;;;;5012997;28;20212;-76
2022/08/26 12:04:53;;;;;;;2.40;2.20;;;31.80;99.90;;;;;;5009715;28;20236;-76
2022/08/26 12:07:26;;;;;;;2.10;1.90;;;31.70;99.90;;;;;;5007846;28;20200;-76
2022/08/26 12:09:59;;;;;;;1.90;1.80;;;31.80;99.90;;;;;;5008570;28;20299;-76
2022/08/26 12:12:30;;;;;;;2.00;1.80;;;32.00;99.90;;;;;;5010723;28;20212;-77
2022/08/26 12:15:12;;;;;;;2.25;2.05;;;32.00;99.90;;;;;;5006010;28;20677;-76
2022/08/26 12:17:40;;;;;;;1.98;1.80;;;32.30;99.90;;;;;;5007340;28;20220;-77
2022/08/26 12:20:18;;;;;;;3.25;1.40;;;32.30;99.90;;;;;;5002784;28;20282;-75
2022/08/26 12:22:47;;;;;;;3.10;1.73;;;32.50;99.90;;;;;;5003070;28;20212;-75
2022/08/26 12:25:22;;;;;;;3.17;1.75;;;32.50;99.90;;;;;;5005346;28;20228;-76
2022/08/26 12:27:51;;;;;;;2.97;1.88;;;32.50;99.90;;;;;;5008710;28;20196;-77
2022/08/26 12:30:20;;;;;;;2.53;1.85;;;32.30;99.90;;;;;;5012144;28;20223;-77
2022/08/26 12:32:50;;;;;;;2.33;1.75;;;32.40;99.90;;;;;;5004067;28;20240;-76
2022/08/26 12:35:19;;;;;;;1.75;1.65;;;32.60;99.90;;;;;;5003768;28;20220;-76
2022/08/26 12:37:50;;;;;;;2.05;1.50;;;32.80;99.90;;;;;;5004249;28;20212;-74
2022/08/26 12:40:42;;;;;;;1.83;1.70;;;32.80;99.90;;;;;;5006109;28;20634;-74
2022/08/26 12:43:13;;;;;;;2.90;1.77;;;32.90;99.90;;;;;;4990684;28;20227;-76
2022/08/26 12:45:42;;;;;;;1.95;1.70;;;32.90;99.90;;;;;;5005234;28;20306;-75
2022/08/26 12:48:12;;;;;;;2.65;1.77;;;32.80;99.90;;;;;;5004306;28;20673;-74
2022/08/26 12:50:45;;;;;;;2.03;1.70;;;33.00;99.90;;;;;;5002063;28;20216;-71
2022/08/26 12:53:22;;;;;;;4.03;1.77;;;33.00;99.90;;;;;;5005429;28;20224;-74
2022/08/26 12:55:52;;;;;;;3.47;1.60;;;33.00;99.90;;;;;;5004363;28;20643;-74
2022/08/26 12:58:30;;;;;;;1.63;1.52;;;32.90;99.90;;;;;;5003934;28;20226;-73
2022/08/26 13:01:18;;;;;;;1.80;1.70;;;33.00;99.00;;;;;;5002488;28;20216;-74
2022/08/26 13:03:46;;;;;;;2.35;1.80;;;33.00;99.80;;;;;;5000037;28;20219;-72
2022/08/26 13:06:18;;;;;;;5.75;1.70;;;33.10;99.90;;;;;;4999895;28;20224;-74
2022/08/26 13:08:47;;;;;;;2.22;1.60;;;33.20;97.20;;;;;;5005503;28;20570;-73
2022/08/26 13:11:19;;;;;;;1.52;1.42;;;33.30;97.60;;;;;;5004571;28;20219;-75